West Valley, New York
Current Conditions -  °F | °C
As of 8:15 PM on Sunday 21 Dec 2014 (Local Time) from KOLE Reporting Station
Overcast Overcast  
Wind Chill: 25°   Ceiling: 600
Heat Index: 25°   Visibility: 10mi
Dew Point: 25°   Wind: 3mph
Humidity: 100%   Direction: 140°SE
Pressure: 30.21"   Gusts: NA
Location:  42.4°N, 78.61°W
Report Text: KOLE 220115Z AUTO 14003KT 10SM OVC006 M04/M04 A3021 RMK AO2
Loading
Personal Weather Stations






























Interactive Weather Map New forecast layout! Learn more

10-Day Weather Forecast

Advertisements
Track Severe Weather on mobile